sensor_id;sensor_type;location;lat;lon;timestamp;pressure;altitude;pressure_sealevel;temperature;humidity
24858;BME280;12935;50.782;6.074;2023-02-13T00:01:50;101462.84;;;5.18;100.00
24858;BME280;12935;50.782;6.074;2023-02-13T00:04:16;101456.13;;;5.15;100.00
24858;BME280;12935;50.782;6.074;2023-02-13T00:06:41;101456.91;;;5.16;100.00
24858;BME280;12935;50.782;6.074;2023-02-13T00:09:06;101449.91;;;5.15;100.00
24858;BME280;12935;50.782;6.074;2023-02-13T00:11:35;101452.59;;;5.15;100.00
24858;BME280;12935;50.782;6.074;2023-02-13T00:14:00;101458.03;;;5.15;100.00
24858;BME280;12935;50.782;6.074;2023-02-13T00:16:26;101451.81;;;5.14;100.00
24858;BME280;12935;50.782;6.074;2023-02-13T00:18:51;101452.41;;;5.11;100.00
24858;BME280;12935;50.782;6.074;2023-02-13T00:21:16;101454.81;;;5.13;100.00
24858;BME280;12935;50.782;6.074;2023-02-13T00:23:41;101452.72;;;5.10;100.00
24858;BME280;12935;50.782;6.074;2023-02-13T00:26:12;101452.69;;;5.01;100.00
24858;BME280;12935;50.782;6.074;2023-02-13T00:28:38;101460.09;;;4.73;100.00
24858;BME280;12935;50.782;6.074;2023-02-13T00:31:12;101447.75;;;4.45;100.00
24858;BME280;12935;50.782;6.074;2023-02-13T00:33:38;101453.63;;;4.25;100.00
24858;BME280;12935;50.782;6.074;2023-02-13T00:38:30;101446.16;;;4.30;100.00
24858;BME280;12935;50.782;6.074;2023-02-13T00:40:55;101446.38;;;4.34;100.00
24858;BME280;12935;50.782;6.074;2023-02-13T00:43:20;101444.66;;;4.38;100.00
24858;BME280;12935;50.782;6.074;2023-02-13T00:45:46;101446.28;;;4.39;100.00
24858;BME280;12935;50.782;6.074;2023-02-13T00:48:11;101439.41;;;4.41;100.00
24858;BME280;12935;50.782;6.074;2023-02-13T00:50:36;101447.69;;;4.36;100.00
24858;BME280;12935;50.782;6.074;2023-02-13T00:53:01;101440.25;;;4.28;100.00
24858;BME280;12935;50.782;6.074;2023-02-13T00:55:26;101439.34;;;4.33;100.00
24858;BME280;12935;50.782;6.074;2023-02-13T00:57:52;101433.63;;;4.34;100.00
24858;BME280;12935;50.782;6.074;2023-02-13T01:00:17;101437.75;;;4.32;100.00
24858;BME280;12935;50.782;6.074;2023-02-13T01:02:43;101429.72;;;4.27;100.00
24858;BME280;12935;50.782;6.074;2023-02-13T01:05:08;101428.84;;;4.31;100.00
24858;BME280;12935;50.782;6.074;2023-02-13T01:07:33;101433.03;;;4.37;100.00
24858;BME280;12935;50.782;6.074;2023-02-13T01:09:59;101433.41;;;4.44;100.00
24858;BME280;12935;50.782;6.074;2023-02-13T01:12:24;101421.47;;;4.45;100.00
24858;BME280;12935;50.782;6.074;2023-02-13T01:14:49;101426.28;;;4.48;100.00
24858;BME280;12935;50.782;6.074;2023-02-13T01:17:15;101429.19;;;4.52;100.00
24858;BME280;12935;50.782;6.074;2023-02-13T01:19:40;101422.47;;;4.49;100.00
24858;BME280;12935;50.782;6.074;2023-02-13T01:22:06;101420.56;;;4.50;100.00
24858;BME280;12935;50.782;6.074;2023-02-13T01:24:32;101415.16;;;4.50;100.00
24858;BME280;12935;50.782;6.074;2023-02-13T01:26:58;101418.97;;;4.49;100.00
24858;BME280;12935;50.782;6.074;2023-02-13T01:29:23;101417.16;;;4.44;100.00
24858;BME280;12935;50.782;6.074;2023-02-13T01:31:48;101419.69;;;4.41;100.00
24858;BME280;12935;50.782;6.074;2023-02-13T01:34:14;101407.97;;;4.32;100.00
24858;BME280;12935;50.782;6.074;2023-02-13T01:36:39;101421.50;;;4.32;100.00
24858;BME280;12935;50.782;6.074;2023-02-13T01:39:04;101424.41;;;4.35;100.00
24858;BME280;12935;50.782;6.074;2023-02-13T01:41:29;101422.00;;;4.34;100.00
24858;BME280;12935;50.782;6.074;2023-02-13T01:43:58;101418.44;;;4.25;100.00
24858;BME280;12935;50.782;6.074;2023-02-13T01:46:34;101421.53;;;4.18;100.00
24858;BME280;12935;50.782;6.074;2023-02-13T01:49:17;101425.44;;;4.12;100.00
24858;BME280;12935;50.782;6.074;2023-02-13T01:51:46;101427.69;;;3.96;100.00
24858;BME280;12935;50.782;6.074;2023-02-13T01:54:18;101431.31;;;3.92;100.00
24858;BME280;12935;50.782;6.074;2023-02-13T01:56:54;101428.09;;;4.03;100.00
24858;BME280;12935;50.782;6.074;2023-02-13T01:59:28;101423.28;;;4.00;100.00
24858;BME280;12935;50.782;6.074;2023-02-13T02:01:55;101414.88;;;3.74;100.00
24858;BME280;12935;50.782;6.074;2023-02-13T02:04:26;101417.59;;;3.74;100.00
24858;BME280;12935;50.782;6.074;2023-02-13T02:07:00;101423.66;;;3.80;100.00
24858;BME280;12935;50.782;6.074;2023-02-13T02:09:29;101421.59;;;3.91;100.00
24858;BME280;12935;50.782;6.074;2023-02-13T02:14:58;101417.34;;;3.98;100.00
24858;BME280;12935;50.782;6.074;2023-02-13T02:17:25;101415.34;;;4.04;100.00
24858;BME280;12935;50.782;6.074;2023-02-13T02:28:28;101419.06;;;3.67;100.00
24858;BME280;12935;50.782;6.074;2023-02-13T02:39:23;101421.19;;;3.70;100.00
24858;BME280;12935;50.782;6.074;2023-02-13T02:44:48;101415.47;;;3.44;100.00
24858;BME280;12935;50.782;6.074;2023-02-13T02:47:55;101422.16;;;3.46;100.00
24858;BME280;12935;50.782;6.074;2023-02-13T02:51:19;101424.78;;;3.51;100.00
24858;BME280;12935;50.782;6.074;2023-02-13T02:57:27;101418.78;;;3.55;100.00
24858;BME280;12935;50.782;6.074;2023-02-13T03:00:16;101431.25;;;3.37;100.00
24858;BME280;12935;50.782;6.074;2023-02-13T03:03:04;101431.75;;;3.39;100.00
24858;BME280;12935;50.782;6.074;2023-02-13T03:05:54;101431.59;;;3.16;100.00
24858;BME280;12935;50.782;6.074;2023-02-13T03:08:36;101423.56;;;3.30;100.00
24858;BME280;12935;50.782;6.074;2023-02-13T03:11:21;101430.69;;;3.07;100.00
24858;BME280;12935;50.782;6.074;2023-02-13T03:14:07;101429.50;;;3.13;100.00
24858;BME280;12935;50.782;6.074;2023-02-13T03:16:34;101422.09;;;3.19;100.00
24858;BME280;12935;50.782;6.074;2023-02-13T03:23:01;101411.50;;;3.09;100.00
24858;BME280;12935;50.782;6.074;2023-02-13T03:25:43;101421.09;;;3.15;100.00
24858;BME280;12935;50.782;6.074;2023-02-13T03:28:40;101422.69;;;3.16;100.00
24858;BME280;12935;50.782;6.074;2023-02-13T03:34:03;101428.06;;;3.02;100.00
24858;BME280;12935;50.782;6.074;2023-02-13T03:36:36;101420.63;;;3.13;100.00
24858;BME280;12935;50.782;6.074;2023-02-13T03:39:33;101423.69;;;3.06;100.00
24858;BME280;12935;50.782;6.074;2023-02-13T03:42:10;101422.22;;;3.14;100.00
24858;BME280;12935;50.782;6.074;2023-02-13T03:44:43;101427.22;;;3.21;100.00
24858;BME280;12935;50.782;6.074;2023-02-13T03:47:11;101417.72;;;3.23;100.00
24858;BME280;12935;50.782;6.074;2023-02-13T03:49:45;101420.63;;;3.13;100.00
24858;BME280;12935;50.782;6.074;2023-02-13T03:52:47;101428.34;;;3.01;100.00
24858;BME280;12935;50.782;6.074;2023-02-13T03:55:20;101426.47;;;3.01;100.00
24858;BME280;12935;50.782;6.074;2023-02-13T03:58:14;101429.66;;;3.03;100.00
24858;BME280;12935;50.782;6.074;2023-02-13T04:01:03;101431.31;;;2.86;100.00
24858;BME280;12935;50.782;6.074;2023-02-13T04:03:40;101422.22;;;2.81;100.00
24858;BME280;12935;50.782;6.074;2023-02-13T04:06:15;101426.06;;;2.94;100.00
24858;BME280;12935;50.782;6.074;2023-02-13T04:08:41;101432.78;;;2.78;100.00
24858;BME280;12935;50.782;6.074;2023-02-13T04:13:54;101441.47;;;2.56;100.00
24858;BME280;12935;50.782;6.074;2023-02-13T04:16:28;101434.56;;;2.50;100.00
24858;BME280;12935;50.782;6.074;2023-02-13T04:18:55;101430.56;;;2.47;100.00
24858;BME280;12935;50.782;6.074;2023-02-13T04:21:21;101436.88;;;2.38;100.00
24858;BME280;12935;50.782;6.074;2023-02-13T04:23:47;101427.41;;;2.40;100.00
24858;BME280;12935;50.782;6.074;2023-02-13T04:26:18;101434.03;;;2.29;100.00
24858;BME280;12935;50.782;6.074;2023-02-13T04:28:44;101428.63;;;2.10;100.00
24858;BME280;12935;50.782;6.074;2023-02-13T04:31:10;101433.56;;;2.22;100.00
24858;BME280;12935;50.782;6.074;2023-02-13T04:33:35;101433.47;;;2.32;100.00
24858;BME280;12935;50.782;6.074;2023-02-13T04:36:00;101438.16;;;2.22;100.00
24858;BME280;12935;50.782;6.074;2023-02-13T04:38:26;101435.19;;;2.23;100.00
24858;BME280;12935;50.782;6.074;2023-02-13T04:40:51;101425.34;;;2.14;100.00
24858;BME280;12935;50.782;6.074;2023-02-13T04:43:16;101433.66;;;2.17;100.00
24858;BME280;12935;50.782;6.074;2023-02-13T04:45:41;101432.53;;;1.99;100.00
24858;BME280;12935;50.782;6.074;2023-02-13T04:48:07;101433.00;;;1.83;100.00
24858;BME280;12935;50.782;6.074;2023-02-13T04:50:32;101436.22;;;1.85;100.00
24858;BME280;12935;50.782;6.074;2023-02-13T04:52:58;101434.44;;;1.75;100.00
24858;BME280;12935;50.782;6.074;2023-02-13T04:55:24;101428.72;;;1.82;100.00
24858;BME280;12935;50.782;6.074;2023-02-13T04:57:54;101419.53;;;1.83;100.00
24858;BME280;12935;50.782;6.074;2023-02-13T05:00:21;101425.97;;;1.87;100.00
24858;BME280;12935;50.782;6.074;2023-02-13T05:02:47;101419.88;;;1.76;100.00
24858;BME280;12935;50.782;6.074;2023-02-13T05:05:12;101421.25;;;1.73;100.00
24858;BME280;12935;50.782;6.074;2023-02-13T05:07:37;101420.28;;;1.88;100.00
24858;BME280;12935;50.782;6.074;2023-02-13T05:10:03;101422.31;;;1.96;100.00
24858;BME280;12935;50.782;6.074;2023-02-13T05:12:29;101416.47;;;1.89;100.00
24858;BME280;12935;50.782;6.074;2023-02-13T05:14:54;101415.91;;;1.92;100.00
24858;BME280;12935;50.782;6.074;2023-02-13T05:17:19;101420.66;;;2.00;100.00
24858;BME280;12935;50.782;6.074;2023-02-13T05:19:45;101431.44;;;2.00;100.00
24858;BME280;12935;50.782;6.074;2023-02-13T05:22:10;101420.50;;;1.92;100.00
24858;BME280;12935;50.782;6.074;2023-02-13T05:24:54;101415.84;;;1.97;100.00
24858;BME280;12935;50.782;6.074;2023-02-13T05:27:20;101420.09;;;2.03;100.00
24858;BME280;12935;50.782;6.074;2023-02-13T05:29:45;101422.91;;;1.93;100.00
24858;BME280;12935;50.782;6.074;2023-02-13T05:32:11;101424.78;;;1.93;100.00
24858;BME280;12935;50.782;6.074;2023-02-13T05:34:36;101422.75;;;1.85;100.00
24858;BME280;12935;50.782;6.074;2023-02-13T05:37:01;101415.63;;;1.94;100.00
24858;BME280;12935;50.782;6.074;2023-02-13T05:39:27;101420.91;;;2.04;100.00
24858;BME280;12935;50.782;6.074;2023-02-13T05:41:52;101433.25;;;2.05;100.00
24858;BME280;12935;50.782;6.074;2023-02-13T05:44:17;101426.09;;;1.95;100.00
24858;BME280;12935;50.782;6.074;2023-02-13T05:46:43;101424.13;;;1.82;100.00
24858;BME280;12935;50.782;6.074;2023-02-13T05:49:10;101428.72;;;1.82;100.00
24858;BME280;12935;50.782;6.074;2023-02-13T05:51:35;101430.06;;;1.79;100.00
24858;BME280;12935;50.782;6.074;2023-02-13T05:54:01;101434.09;;;1.82;100.00
24858;BME280;12935;50.782;6.074;2023-02-13T05:56:26;101425.69;;;1.88;100.00
24858;BME280;12935;50.782;6.074;2023-02-13T05:58:53;101433.44;;;1.90;100.00
24858;BME280;12935;50.782;6.074;2023-02-13T06:01:19;101425.06;;;1.91;100.00
24858;BME280;12935;50.782;6.074;2023-02-13T06:03:45;101435.56;;;1.93;100.00
24858;BME280;12935;50.782;6.074;2023-02-13T06:06:10;101410.19;;;1.75;100.00
24858;BME280;12935;50.782;6.074;2023-02-13T06:08:35;101420.66;;;1.76;100.00
24858;BME280;12935;50.782;6.074;2023-02-13T06:11:02;101431.97;;;1.79;100.00
24858;BME280;12935;50.782;6.074;2023-02-13T06:13:28;101417.69;;;1.78;100.00
24858;BME280;12935;50.782;6.074;2023-02-13T06:15:53;101426.56;;;1.79;100.00
24858;BME280;12935;50.782;6.074;2023-02-13T06:18:18;101419.28;;;1.79;100.00
24858;BME280;12935;50.782;6.074;2023-02-13T06:20:44;101420.38;;;1.78;100.00
24858;BME280;12935;50.782;6.074;2023-02-13T06:23:09;101408.81;;;1.77;100.00
24858;BME280;12935;50.782;6.074;2023-02-13T06:25:35;101409.56;;;1.83;100.00
24858;BME280;12935;50.782;6.074;2023-02-13T06:28:01;101411.31;;;1.93;100.00
24858;BME280;12935;50.782;6.074;2023-02-13T06:30:26;101415.31;;;1.95;100.00
24858;BME280;12935;50.782;6.074;2023-02-13T06:32:51;101417.28;;;1.90;100.00
24858;BME280;12935;50.782;6.074;2023-02-13T06:35:17;101413.28;;;1.87;100.00
24858;BME280;12935;50.782;6.074;2023-02-13T06:37:42;101414.53;;;1.95;100.00
24858;BME280;12935;50.782;6.074;2023-02-13T06:40:09;101411.06;;;1.89;100.00
24858;BME280;12935;50.782;6.074;2023-02-13T06:42:34;101410.59;;;1.87;100.00
24858;BME280;12935;50.782;6.074;2023-02-13T06:45:00;101406.44;;;1.95;100.00
24858;BME280;12935;50.782;6.074;2023-02-13T06:47:25;101411.03;;;1.94;100.00
24858;BME280;12935;50.782;6.074;2023-02-13T06:49:51;101408.47;;;1.84;100.00
24858;BME280;12935;50.782;6.074;2023-02-13T06:52:16;101405.47;;;1.86;100.00
24858;BME280;12935;50.782;6.074;2023-02-13T06:54:41;101410.50;;;1.92;100.00
24858;BME280;12935;50.782;6.074;2023-02-13T06:57:07;101401.25;;;1.80;100.00
24858;BME280;12935;50.782;6.074;2023-02-13T06:59:32;101408.91;;;1.91;100.00
24858;BME280;12935;50.782;6.074;2023-02-13T07:01:57;101403.41;;;1.77;100.00
24858;BME280;12935;50.782;6.074;2023-02-13T07:04:22;101405.25;;;1.82;100.00
24858;BME280;12935;50.782;6.074;2023-02-13T07:06:48;101407.28;;;1.90;100.00
24858;BME280;12935;50.782;6.074;2023-02-13T07:09:13;101407.47;;;1.99;100.00
24858;BME280;12935;50.782;6.074;2023-02-13T07:11:40;101399.53;;;1.89;100.00
24858;BME280;12935;50.782;6.074;2023-02-13T07:14:06;101397.78;;;1.98;100.00
24858;BME280;12935;50.782;6.074;2023-02-13T07:16:32;101414.63;;;2.08;100.00
24858;BME280;12935;50.782;6.074;2023-02-13T07:18:57;101409.94;;;1.95;100.00
24858;BME280;12935;50.782;6.074;2023-02-13T07:21:22;101415.03;;;1.97;100.00
24858;BME280;12935;50.782;6.074;2023-02-13T07:23:48;101409.31;;;2.03;100.00
24858;BME280;12935;50.782;6.074;2023-02-13T07:26:13;101407.19;;;2.00;100.00
24858;BME280;12935;50.782;6.074;2023-02-13T07:28:40;101401.41;;;2.07;100.00
24858;BME280;12935;50.782;6.074;2023-02-13T07:31:05;101398.22;;;2.05;100.00
24858;BME280;12935;50.782;6.074;2023-02-13T07:33:32;101399.69;;;2.16;100.00
24858;BME280;12935;50.782;6.074;2023-02-13T07:35:57;101407.56;;;2.31;100.00
24858;BME280;12935;50.782;6.074;2023-02-13T07:38:22;101405.25;;;2.43;100.00
24858;BME280;12935;50.782;6.074;2023-02-13T07:40:47;101403.13;;;2.59;100.00
24858;BME280;12935;50.782;6.074;2023-02-13T07:43:13;101403.47;;;2.71;100.00
24858;BME280;12935;50.782;6.074;2023-02-13T07:45:38;101401.94;;;2.65;100.00
24858;BME280;12935;50.782;6.074;2023-02-13T07:48:03;101398.16;;;2.47;100.00
24858;BME280;12935;50.782;6.074;2023-02-13T07:50:29;101407.47;;;2.36;100.00
24858;BME280;12935;50.782;6.074;2023-02-13T07:52:56;101409.91;;;2.19;100.00
24858;BME280;12935;50.782;6.074;2023-02-13T07:55:21;101415.19;;;2.05;100.00
24858;BME280;12935;50.782;6.074;2023-02-13T07:57:47;101410.59;;;1.87;100.00
24858;BME280;12935;50.782;6.074;2023-02-13T08:00:13;101419.25;;;1.84;100.00
24858;BME280;12935;50.782;6.074;2023-02-13T08:02:38;101415.00;;;1.78;100.00
24858;BME280;12935;50.782;6.074;2023-02-13T08:05:04;101417.69;;;1.78;100.00
24858;BME280;12935;50.782;6.074;2023-02-13T08:07:29;101421.13;;;1.84;100.00
24858;BME280;12935;50.782;6.074;2023-02-13T08:09:55;101418.03;;;1.95;100.00
24858;BME280;12935;50.782;6.074;2023-02-13T08:12:40;101425.97;;;2.05;100.00
24858;BME280;12935;50.782;6.074;2023-02-13T08:15:06;101435.28;;;2.18;100.00
24858;BME280;12935;50.782;6.074;2023-02-13T08:17:31;101430.53;;;2.29;100.00
24858;BME280;12935;50.782;6.074;2023-02-13T08:19:57;101428.22;;;2.60;100.00
24858;BME280;12935;50.782;6.074;2023-02-13T08:22:22;101440.81;;;2.83;100.00
24858;BME280;12935;50.782;6.074;2023-02-13T08:24:48;101437.88;;;2.98;100.00
24858;BME280;12935;50.782;6.074;2023-02-13T08:27:14;101446.56;;;2.95;100.00
24858;BME280;12935;50.782;6.074;2023-02-13T08:29:40;101444.06;;;2.99;100.00
24858;BME280;12935;50.782;6.074;2023-02-13T08:32:05;101448.69;;;2.98;100.00
24858;BME280;12935;50.782;6.074;2023-02-13T08:34:31;101450.22;;;3.18;100.00
24858;BME280;12935;50.782;6.074;2023-02-13T08:36:56;101443.88;;;3.41;100.00
24858;BME280;12935;50.782;6.074;2023-02-13T08:39:21;101452.81;;;3.56;100.00
24858;BME280;12935;50.782;6.074;2023-02-13T08:41:47;101454.34;;;3.75;100.00
24858;BME280;12935;50.782;6.074;2023-02-13T08:44:12;101444.13;;;3.86;100.00
24858;BME280;12935;50.782;6.074;2023-02-13T08:46:37;101439.19;;;4.02;100.00
24858;BME280;12935;50.782;6.074;2023-02-13T08:49:03;101446.59;;;4.10;100.00
24858;BME280;12935;50.782;6.074;2023-02-13T08:51:28;101440.69;;;4.21;100.00
24858;BME280;12935;50.782;6.074;2023-02-13T08:53:53;101449.06;;;4.34;100.00
24858;BME280;12935;50.782;6.074;2023-02-13T08:56:18;101441.81;;;4.43;100.00
24858;BME280;12935;50.782;6.074;2023-02-13T08:58:47;101449.13;;;4.56;100.00
24858;BME280;12935;50.782;6.074;2023-02-13T09:01:12;101453.81;;;4.64;100.00
24858;BME280;12935;50.782;6.074;2023-02-13T09:03:38;101456.28;;;4.74;100.00
24858;BME280;12935;50.782;6.074;2023-02-13T09:06:03;101456.06;;;4.84;100.00
24858;BME280;12935;50.782;6.074;2023-02-13T09:08:29;101459.00;;;4.97;100.00
24858;BME280;12935;50.782;6.074;2023-02-13T09:10:59;101451.91;;;5.09;100.00
24858;BME280;12935;50.782;6.074;2023-02-13T09:13:26;101458.22;;;5.18;100.00
24858;BME280;12935;50.782;6.074;2023-02-13T09:15:51;101455.44;;;5.32;100.00
24858;BME280;12935;50.782;6.074;2023-02-13T09:18:17;101456.44;;;5.45;100.00
24858;BME280;12935;50.782;6.074;2023-02-13T09:20:42;101464.81;;;5.57;100.00
24858;BME280;12935;50.782;6.074;2023-02-13T09:23:07;101462.00;;;5.71;100.00
24858;BME280;12935;50.782;6.074;2023-02-13T09:25:33;101458.22;;;5.80;100.00
24858;BME280;12935;50.782;6.074;2023-02-13T09:27:58;101457.66;;;5.92;100.00
24858;BME280;12935;50.782;6.074;2023-02-13T09:30:24;101461.34;;;6.05;100.00
24858;BME280;12935;50.782;6.074;2023-02-13T09:32:51;101467.44;;;6.19;100.00
24858;BME280;12935;50.782;6.074;2023-02-13T09:35:17;101463.50;;;6.33;100.00
24858;BME280;12935;50.782;6.074;2023-02-13T09:37:43;101461.47;;;6.56;100.00
24858;BME280;12935;50.782;6.074;2023-02-13T09:40:20;101461.47;;;6.82;100.00
24858;BME280;12935;50.782;6.074;2023-02-13T09:42:48;101460.81;;;7.02;100.00
24858;BME280;12935;50.782;6.074;2023-02-13T09:45:15;101468.16;;;7.19;100.00
24858;BME280;12935;50.782;6.074;2023-02-13T09:47:44;101473.03;;;7.43;100.00
24858;BME280;12935;50.782;6.074;2023-02-13T09:50:21;101466.22;;;7.75;100.00
24858;BME280;12935;50.782;6.074;2023-02-13T09:52:49;101463.53;;;8.04;100.00
24858;BME280;12935;50.782;6.074;2023-02-13T09:55:44;101473.31;;;8.35;100.00
24858;BME280;12935;50.782;6.074;2023-02-13T09:58:25;101473.34;;;8.56;100.00
24858;BME280;12935;50.782;6.074;2023-02-13T10:00:55;101475.94;;;8.52;100.00
24858;BME280;12935;50.782;6.074;2023-02-13T10:03:38;101482.97;;;8.32;100.00
24858;BME280;12935;50.782;6.074;2023-02-13T10:06:31;101495.53;;;8.16;100.00
24858;BME280;12935;50.782;6.074;2023-02-13T10:09:12;101495.19;;;8.18;100.00
24858;BME280;12935;50.782;6.074;2023-02-13T10:12:03;101494.78;;;8.36;100.00
24858;BME280;12935;50.782;6.074;2023-02-13T10:14:49;101488.13;;;8.75;100.00
24858;BME280;12935;50.782;6.074;2023-02-13T10:17:23;101483.19;;;8.69;100.00
24858;BME280;12935;50.782;6.074;2023-02-13T10:19:56;101481.53;;;8.56;100.00
24858;BME280;12935;50.782;6.074;2023-02-13T10:22:47;101479.00;;;8.71;100.00
24858;BME280;12935;50.782;6.074;2023-02-13T10:25:20;101484.22;;;8.97;100.00
24858;BME280;12935;50.782;6.074;2023-02-13T10:27:58;101482.31;;;8.98;100.00
24858;BME280;12935;50.782;6.074;2023-02-13T10:30:27;101485.09;;;9.10;100.00
24858;BME280;12935;50.782;6.074;2023-02-13T10:35:59;101481.78;;;9.04;100.00
24858;BME280;12935;50.782;6.074;2023-02-13T10:38:28;101481.03;;;9.16;100.00
24858;BME280;12935;50.782;6.074;2023-02-13T10:43:47;101472.47;;;9.38;100.00
24858;BME280;12935;50.782;6.074;2023-02-13T10:49:11;101488.56;;;9.64;100.00
24858;BME280;12935;50.782;6.074;2023-02-13T10:51:53;101462.06;;;9.65;100.00
24858;BME280;12935;50.782;6.074;2023-02-13T10:57:00;101464.00;;;10.13;100.00
24858;BME280;12935;50.782;6.074;2023-02-13T11:02:32;101465.97;;;10.25;100.00
24858;BME280;12935;50.782;6.074;2023-02-13T11:05:20;101464.91;;;10.53;100.00
24858;BME280;12935;50.782;6.074;2023-02-13T11:07:47;101456.19;;;11.04;100.00
24858;BME280;12935;50.782;6.074;2023-02-13T11:12:40;101455.47;;;11.78;100.00
24858;BME280;12935;50.782;6.074;2023-02-13T11:15:20;101457.44;;;11.97;100.00
24858;BME280;12935;50.782;6.074;2023-02-13T11:17:45;101452.16;;;12.04;100.00
24858;BME280;12935;50.782;6.074;2023-02-13T11:20:41;101445.28;;;11.94;96.56
24858;BME280;12935;50.782;6.074;2023-02-13T11:23:34;101447.94;;;12.42;94.49
24858;BME280;12935;50.782;6.074;2023-02-13T11:26:10;101443.84;;;12.71;92.76
24858;BME280;12935;50.782;6.074;2023-02-13T11:28:38;101439.88;;;12.68;91.38
24858;BME280;12935;50.782;6.074;2023-02-13T11:33:38;101440.84;;;13.60;89.83
24858;BME280;12935;50.782;6.074;2023-02-13T11:36:23;101435.94;;;14.22;90.33
24858;BME280;12935;50.782;6.074;2023-02-13T11:39:06;101428.38;;;14.71;85.38
24858;BME280;12935;50.782;6.074;2023-02-13T11:41:43;101419.03;;;14.80;78.07
24858;BME280;12935;50.782;6.074;2023-02-13T11:44:25;101424.16;;;15.15;77.87
24858;BME280;12935;50.782;6.074;2023-02-13T11:46:56;101417.03;;;15.14;78.09
24858;BME280;12935;50.782;6.074;2023-02-13T11:49:27;101423.75;;;15.53;77.50
24858;BME280;12935;50.782;6.074;2023-02-13T11:51:55;101418.78;;;15.69;72.96
24858;BME280;12935;50.782;6.074;2023-02-13T11:54:40;101419.69;;;15.84;74.89
24858;BME280;12935;50.782;6.074;2023-02-13T11:57:22;101418.38;;;16.26;72.74
24858;BME280;12935;50.782;6.074;2023-02-13T11:59:50;101419.66;;;16.42;72.36
24858;BME280;12935;50.782;6.074;2023-02-13T12:02:26;101411.13;;;16.65;71.14
24858;BME280;12935;50.782;6.074;2023-02-13T12:04:54;101407.56;;;15.96;67.01
24858;BME280;12935;50.782;6.074;2023-02-13T12:07:40;101400.19;;;15.19;71.93
24858;BME280;12935;50.782;6.074;2023-02-13T12:10:22;101406.16;;;16.23;73.24
24858;BME280;12935;50.782;6.074;2023-02-13T12:12:55;101404.53;;;17.05;69.76
24858;BME280;12935;50.782;6.074;2023-02-13T12:15:30;101389.59;;;17.38;66.90
24858;BME280;12935;50.782;6.074;2023-02-13T12:18:20;101402.66;;;17.87;64.42
24858;BME280;12935;50.782;6.074;2023-02-13T12:21:00;101401.41;;;18.17;62.15
24858;BME280;12935;50.782;6.074;2023-02-13T12:23:42;101401.34;;;18.35;60.49
24858;BME280;12935;50.782;6.074;2023-02-13T12:26:22;101392.16;;;18.70;57.61
24858;BME280;12935;50.782;6.074;2023-02-13T12:29:21;101388.81;;;19.00;56.45
24858;BME280;12935;50.782;6.074;2023-02-13T12:34:38;101386.03;;;19.58;53.53
24858;BME280;12935;50.782;6.074;2023-02-13T12:43:13;101374.34;;;20.19;50.23
24858;BME280;12935;50.782;6.074;2023-02-13T13:02:37;101359.84;;;18.38;48.13
24858;BME280;12935;50.782;6.074;2023-02-13T13:05:16;101351.63;;;19.01;50.65
24858;BME280;12935;50.782;6.074;2023-02-13T13:16:29;101352.13;;;20.19;48.94
24858;BME280;12935;50.782;6.074;2023-02-13T13:22:17;101338.34;;;19.26;46.76
24858;BME280;12935;50.782;6.074;2023-02-13T13:27:35;101346.41;;;20.33;47.63
24858;BME280;12935;50.782;6.074;2023-02-13T13:30:17;101343.25;;;21.19;45.27
24858;BME280;12935;50.782;6.074;2023-02-13T13:32:44;101331.75;;;21.44;44.24
24858;BME280;12935;50.782;6.074;2023-02-13T13:35:15;101340.44;;;20.95;45.49
24858;BME280;12935;50.782;6.074;2023-02-13T13:37:57;101336.28;;;20.80;44.27
24858;BME280;12935;50.782;6.074;2023-02-13T13:43:18;101327.81;;;18.27;48.25
24858;BME280;12935;50.782;6.074;2023-02-13T13:46:01;101325.94;;;18.09;51.15
24858;BME280;12935;50.782;6.074;2023-02-13T13:51:20;101320.34;;;18.23;49.36
24858;BME280;12935;50.782;6.074;2023-02-13T13:56:23;101318.53;;;17.35;51.99
24858;BME280;12935;50.782;6.074;2023-02-13T13:58:49;101313.34;;;16.88;53.67
24858;BME280;12935;50.782;6.074;2023-02-13T14:03:44;101324.56;;;16.22;56.24
24858;BME280;12935;50.782;6.074;2023-02-13T14:06:13;101320.94;;;15.45;56.16
24858;BME280;12935;50.782;6.074;2023-02-13T14:11:05;101320.13;;;15.41;59.11
24858;BME280;12935;50.782;6.074;2023-02-13T14:13:38;101318.44;;;15.30;60.03
24858;BME280;12935;50.782;6.074;2023-02-13T14:16:08;101327.00;;;15.18;60.16
24858;BME280;12935;50.782;6.074;2023-02-13T14:18:35;101314.28;;;15.02;59.55
24858;BME280;12935;50.782;6.074;2023-02-13T14:21:03;101314.59;;;14.94;60.17
24858;BME280;12935;50.782;6.074;2023-02-13T14:23:34;101306.16;;;14.76;61.04
24858;BME280;12935;50.782;6.074;2023-02-13T14:31:19;101312.88;;;14.12;67.60
24858;BME280;12935;50.782;6.074;2023-02-13T14:34:04;101306.72;;;13.65;72.79
24858;BME280;12935;50.782;6.074;2023-02-13T14:36:33;101306.63;;;13.58;74.31
24858;BME280;12935;50.782;6.074;2023-02-13T14:39:05;101303.81;;;13.55;75.63
24858;BME280;12935;50.782;6.074;2023-02-13T14:44:17;101298.59;;;13.46;78.26
24858;BME280;12935;50.782;6.074;2023-02-13T14:46:44;101296.06;;;13.34;78.40
24858;BME280;12935;50.782;6.074;2023-02-13T14:49:28;101292.31;;;13.23;79.01
24858;BME280;12935;50.782;6.074;2023-02-13T14:51:59;101290.69;;;13.18;80.06
24858;BME280;12935;50.782;6.074;2023-02-13T14:57:19;101281.56;;;13.14;82.97
24858;BME280;12935;50.782;6.074;2023-02-13T14:59:49;101283.81;;;13.09;83.44
24858;BME280;12935;50.782;6.074;2023-02-13T15:02:22;101275.97;;;12.84;86.16
24858;BME280;12935;50.782;6.074;2023-02-13T15:07:30;101280.25;;;12.82;87.80
24858;BME280;12935;50.782;6.074;2023-02-13T15:10:03;101276.84;;;12.88;87.70
24858;BME280;12935;50.782;6.074;2023-02-13T15:12:34;101272.38;;;12.80;89.30